Time;durP1;ratioP1;P1;durP2;ratioP2;P2;SDS_P1;SDS_P2;PMS_P1;PMS_P2;Temp;Humidity;BMP_temperature;BMP_pressure;BME280_temperature;BME280_humidity;BME280_pressure;Samples;Min_cycle;Max_cycle;Signal;HPM_P1;HPM_P2
2023/01/10 00:01:56;;;;;;;13.57;2.22;;;;;;;13.83;48.56;101083.69;5026855;28;20025;-70
2023/01/10 00:04:22;;;;;;;4.10;1.15;;;;;;;13.82;48.66;101088.22;5043410;28;20053;-70
2023/01/10 00:06:47;;;;;;;3.00;1.42;;;;;;;13.82;47.97;101090.06;5043738;28;20491;-70
2023/01/10 00:09:13;;;;;;;3.60;1.15;;;;;;;13.80;47.46;101094.75;5044515;28;20133;-70
2023/01/10 00:14:22;;;;;;;5.47;1.40;;;;;;;13.76;47.42;101104.13;5043085;28;20087;-71
2023/01/10 00:16:48;;;;;;;6.90;1.45;;;;;;;13.74;48.05;101114.16;5042850;28;20444;-68
2023/01/10 00:19:13;;;;;;;2.92;1.23;;;;;;;13.74;48.68;101124.94;5026568;28;20079;-69
2023/01/10 00:21:38;;;;;;;3.45;0.98;;;;;;;13.75;48.30;101123.97;5042978;28;20021;-70
2023/01/10 00:24:22;;;;;;;9.43;1.38;;;;;;;13.73;48.14;101134.88;5043168;28;20503;-70
2023/01/10 00:26:51;;;;;;;4.45;1.20;;;;;;;13.74;47.47;101135.69;5028955;28;20033;-70
2023/01/10 00:29:22;;;;;;;7.80;1.85;;;;;;;13.71;47.67;101128.75;5044186;28;20052;-70
2023/01/10 00:31:48;;;;;;;9.18;1.42;;;;;;;13.70;48.33;101131.63;5025827;28;20152;-69
2023/01/10 00:34:14;;;;;;;4.68;1.58;;;;;;;13.68;48.17;101136.31;5034836;28;20113;-70
2023/01/10 00:36:40;;;;;;;9.07;1.63;;;;;;;13.64;48.15;101143.78;5035110;28;20049;-70
2023/01/10 00:39:06;;;;;;;8.10;1.42;;;;;;;13.62;48.21;101137.72;5034428;28;20045;-70
2023/01/10 00:44:15;;;;;;;4.38;1.33;;;;;;;13.56;48.69;101140.09;5034168;28;20525;-70
2023/01/10 00:46:40;;;;;;;3.00;1.10;;;;;;;13.49;47.41;101138.94;5033894;28;20490;-69
2023/01/10 00:49:10;;;;;;;1.33;1.10;;;;;;;13.45;47.38;101140.25;5014843;28;20124;-70
2023/01/10 00:51:36;;;;;;;11.73;2.20;;;;;;;13.43;48.07;101147.63;5014914;28;20046;-70
2023/01/10 00:54:02;;;;;;;9.23;1.88;;;;;;;13.38;48.50;101159.63;5014252;28;20041;-70
2023/01/10 00:56:27;;;;;;;7.53;2.33;;;;;;;13.37;48.22;101160.59;5026596;28;20125;-69
2023/01/10 00:58:52;;;;;;;11.50;1.33;;;;;;;13.35;47.24;101165.28;5033812;28;20513;-69
2023/01/10 01:01:18;;;;;;;3.40;1.55;;;;;;;13.34;47.59;101174.34;5033691;28;20037;-70
2023/01/10 01:03:43;;;;;;;3.60;1.88;;;;;;;13.34;48.24;101170.81;5016396;28;20105;-69
2023/01/10 01:06:08;;;;;;;5.47;2.20;;;;;;;13.34;47.41;101174.34;5033848;28;20047;-69
2023/01/10 01:08:34;;;;;;;6.20;1.55;;;;;;;13.32;48.54;101173.63;5033572;28;20104;-70
2023/01/10 01:11:00;;;;;;;5.95;1.50;;;;;;;13.31;47.13;101179.16;5033772;28;20064;-70
2023/01/10 01:13:25;;;;;;;8.43;1.33;;;;;;;13.31;47.58;101177.34;5034001;28;20053;-70
2023/01/10 01:15:51;;;;;;;6.82;1.48;;;;;;;13.30;47.81;101182.84;5034102;28;20371;-68
2023/01/10 01:18:19;;;;;;;4.63;1.42;;;;;;;13.31;46.94;101182.72;5033576;28;20040;-68
2023/01/10 01:20:45;;;;;;;4.25;1.38;;;;;;;13.30;47.06;101191.75;5033583;28;20037;-69
2023/01/10 01:23:11;;;;;;;11.63;1.50;;;;;;;13.28;48.21;101188.38;5033316;28;20037;-68
2023/01/10 01:25:36;;;;;;;5.65;1.88;;;;;;;13.27;48.10;101193.88;5033427;28;20038;-69
2023/01/10 01:28:02;;;;;;;11.40;2.17;;;;;;;13.27;48.51;101194.72;5015947;28;20508;-69
2023/01/10 01:30:28;;;;;;;7.30;2.00;;;;;;;13.30;48.19;101199.84;5033563;28;20112;-70
2023/01/10 01:32:53;;;;;;;8.88;1.70;;;;;;;13.32;47.40;101199.69;5033166;28;20033;-70
2023/01/10 01:35:18;;;;;;;8.45;1.35;;;;;;;13.31;48.47;101211.44;5033036;28;20037;-70
2023/01/10 01:37:44;;;;;;;3.80;1.42;;;;;;;13.30;48.08;101215.97;5033401;28;20033;-69
2023/01/10 01:40:14;;;;;;;4.95;1.25;;;;;;;13.30;48.40;101221.34;5033865;28;20032;-70
2023/01/10 01:42:40;;;;;;;3.60;0.90;;;;;;;13.27;48.26;101224.31;5016709;28;20021;-69
2023/01/10 01:45:08;;;;;;;8.90;1.45;;;;;;;13.26;47.18;101236.06;5033139;28;20166;-70
2023/01/10 01:47:42;;;;;;;6.57;1.65;;;;;;;13.28;47.38;101244.88;5033019;28;20477;-69
2023/01/10 01:50:18;;;;;;;7.32;1.10;;;;;;;13.29;47.88;101246.53;5033169;28;20045;-71
2023/01/10 01:52:44;;;;;;;2.80;1.40;;;;;;;13.29;47.88;101246.53;5033429;28;20124;-69
2023/01/10 01:55:09;;;;;;;6.00;1.65;;;;;;;13.28;48.20;101255.63;5033234;28;20037;-69
2023/01/10 01:57:35;;;;;;;7.75;1.50;;;;;;;13.25;47.03;101255.03;5015676;28;20022;-68
2023/01/10 02:00:03;;;;;;;9.35;2.38;;;;;;;13.27;47.99;101270.06;5032820;28;20048;-69
2023/01/10 02:02:31;;;;;;;5.57;1.20;;;;;;;13.29;46.95;101272.59;5015597;28;20049;-68
2023/01/10 02:05:07;;;;;;;9.30;1.45;;;;;;;13.30;47.74;101269.78;5015426;28;20038;-69
2023/01/10 02:07:36;;;;;;;7.70;1.73;;;;;;;13.27;47.12;101270.06;5016509;28;20041;-70
2023/01/10 02:10:15;;;;;;;7.93;1.40;;;;;;;13.27;47.84;101280.81;5032615;28;20029;-70
2023/01/10 02:12:41;;;;;;;9.95;1.65;;;;;;;13.27;46.77;101274.56;5032788;28;20036;-70
2023/01/10 02:15:07;;;;;;;12.93;1.48;;;;;;;13.27;47.36;101280.81;5032571;28;20033;-69
2023/01/10 02:17:32;;;;;;;3.53;1.20;;;;;;;13.27;47.29;101277.25;5015419;28;20060;-69
2023/01/10 02:20:05;;;;;;;7.32;1.42;;;;;;;13.30;46.27;101282.38;5015342;28;20519;-68
2023/01/10 02:23:08;;;;;;;6.18;2.25;;;;;;;13.30;46.56;101274.31;5033370;28;20055;-69
2023/01/10 02:25:52;;;;;;;12.20;2.55;;;;;;;13.26;46.42;101276.41;5032822;28;20113;-70
2023/01/10 02:28:29;;;;;;;9.02;1.88;;;;;;;13.25;47.69;101284.63;5032890;28;20116;-69
2023/01/10 02:31:19;;;;;;;10.45;1.23;;;;;;;13.22;47.36;101293.81;5033079;28;20036;-69
2023/01/10 02:34:06;;;;;;;3.90;1.48;;;;;;;13.22;47.60;101303.72;5032848;28;20506;-69
2023/01/10 02:37:20;;;;;;;11.07;1.70;;;;;;;13.19;46.44;101298.63;5032874;28;20095;-68
2023/01/10 02:39:58;;;;;;;4.70;1.38;;;;;;;13.14;47.54;101299.03;5015662;28;20037;-69
2023/01/10 02:42:33;;;;;;;2.75;1.30;;;;;;;13.13;47.53;101300.00;5015468;28;20076;-69
2023/01/10 02:45:01;;;;;;;3.45;1.20;;;;;;;13.12;46.93;101292.09;5032528;28;20033;-70
2023/01/10 02:47:37;;;;;;;10.40;1.40;;;;;;;13.13;47.17;101307.22;5014648;28;20041;-70
2023/01/10 02:50:28;;;;;;;7.28;1.40;;;;;;;13.16;46.54;101301.56;5014960;28;20065;-69
2023/01/10 02:52:56;;;;;;;4.53;1.23;;;;;;;13.19;47.00;101310.22;5015144;28;20033;-69
2023/01/10 02:55:30;;;;;;;13.93;2.08;;;;;;;13.21;47.92;101304.69;5032744;28;20100;-69
2023/01/10 02:58:21;;;;;;;10.48;1.42;;;;;;;13.22;46.78;101309.09;5033010;28;20021;-69
2023/01/10 03:00:59;;;;;;;3.85;0.88;;;;;;;13.21;47.26;101307.38;5032529;28;20033;-69
2023/01/10 03:03:37;;;;;;;3.20;1.55;;;;;;;13.21;46.49;101312.78;5015225;28;20037;-69
2023/01/10 03:06:17;;;;;;;4.20;1.83;;;;;;;13.21;46.83;101321.69;5032903;28;20373;-70
2023/01/10 03:08:54;;;;;;;13.98;2.28;;;;;;;13.21;47.58;101327.06;5032760;28;20044;-68
2023/01/10 03:11:38;;;;;;;11.65;1.42;;;;;;;13.20;47.77;101325.41;5032546;28;20048;-69
2023/01/10 03:14:05;;;;;;;3.58;1.15;;;;;;;13.20;46.53;101338.84;5032401;28;20112;-70
2023/01/10 03:16:32;;;;;;;7.00;1.48;;;;;;;13.16;46.41;101337.41;5014746;28;20036;-69
2023/01/10 03:19:09;;;;;;;6.45;1.50;;;;;;;13.13;46.75;101337.66;5031987;28;20505;-70
2023/01/10 03:21:35;;;;;;;4.22;1.73;;;;;;;13.13;46.41;101347.56;5015522;28;20068;-69
2023/01/10 03:24:06;;;;;;;3.05;1.25;;;;;;;13.11;47.26;101350.41;5032999;28;20038;-69
2023/01/10 03:26:46;;;;;;;6.63;1.30;;;;;;;13.10;46.95;101362.13;5031939;28;20132;-70
2023/01/10 03:29:17;;;;;;;6.60;0.80;;;;;;;13.10;46.52;101356.75;5034760;28;20037;-69
2023/01/10 03:31:55;;;;;;;12.05;1.23;;;;;;;13.09;47.41;101365.78;5017953;28;20040;-69
2023/01/10 03:34:21;;;;;;;3.75;1.33;;;;;;;13.06;46.29;101374.13;5017884;28;20038;-69
2023/01/10 03:36:57;;;;;;;7.30;2.03;;;;;;;13.08;47.21;101382.06;5035847;28;20101;-70
2023/01/10 03:39:31;;;;;;;6.28;0.93;;;;;;;13.07;46.70;101383.91;5017876;28;20049;-70
2023/01/10 03:42:05;;;;;;;7.03;1.40;;;;;;;13.08;46.44;101388.31;5035351;28;20114;-70
2023/01/10 03:44:42;;;;;;;3.63;1.45;;;;;;;13.08;46.64;101390.16;5017710;28;20588;-69
2023/01/10 03:47:35;;;;;;;7.85;1.55;;;;;;;13.06;46.63;101386.72;5035194;28;20034;-69
2023/01/10 03:50:12;;;;;;;5.35;1.73;;;;;;;13.04;46.71;101386.81;5015589;28;20045;-70
2023/01/10 03:52:39;;;;;;;9.52;0.95;;;;;;;13.01;46.98;101397.00;4997962;28;20029;-69
2023/01/10 03:55:06;;;;;;;14.43;1.65;;;;;;;13.01;46.41;101399.69;4997774;28;20045;-69
2023/01/10 03:57:31;;;;;;;13.45;1.20;;;;;;;12.99;46.62;101399.81;5016027;28;20034;-68
2023/01/10 03:59:57;;;;;;;14.20;1.77;;;;;;;12.99;47.63;101399.81;5015792;28;20049;-69
2023/01/10 04:02:28;;;;;;;9.38;1.33;;;;;;;12.99;46.76;101399.81;4981572;28;20038;-70
2023/01/10 04:04:54;;;;;;;14.52;1.33;;;;;;;12.98;46.98;101402.66;4997737;28;20100;-69
2023/01/10 04:07:19;;;;;;;7.22;1.50;;;;;;;12.99;46.65;101404.34;5015542;28;20038;-69
2023/01/10 04:09:45;;;;;;;7.30;1.40;;;;;;;12.96;47.13;101405.44;5015531;28;20049;-69
2023/01/10 04:12:10;;;;;;;7.45;1.42;;;;;;;12.96;46.81;101408.13;5021928;28;20037;-69
2023/01/10 04:14:36;;;;;;;7.22;2.28;;;;;;;12.95;46.67;101414.53;5034660;28;20502;-69
2023/01/10 04:17:01;;;;;;;8.80;1.73;;;;;;;12.94;46.36;101412.81;5034816;28;20069;-70
2023/01/10 04:19:26;;;;;;;6.88;1.65;;;;;;;12.92;47.77;101411.22;5034629;28;20041;-70
2023/01/10 04:21:52;;;;;;;7.13;1.67;;;;;;;12.91;47.38;101415.75;5034900;28;20116;-71
2023/01/10 04:24:17;;;;;;;9.75;1.85;;;;;;;12.91;46.50;101415.75;5016791;28;20037;-70
2023/01/10 04:26:43;;;;;;;7.32;1.50;;;;;;;12.92;46.72;101422.00;5034568;28;20037;-70
2023/01/10 04:29:09;;;;;;;9.23;1.83;;;;;;;12.93;46.53;101418.28;5034599;28;20040;-69
2023/01/10 04:31:35;;;;;;;9.93;1.50;;;;;;;12.92;46.94;101422.84;5034502;28;20523;-69
2023/01/10 04:34:00;;;;;;;8.25;1.25;;;;;;;12.95;47.65;101419.91;5016815;28;20045;-71
2023/01/10 04:36:26;;;;;;;7.93;1.15;;;;;;;12.96;46.45;101416.22;5034856;28;20401;-71
2023/01/10 04:38:52;;;;;;;12.05;1.50;;;;;;;12.97;47.75;101423.31;5034023;28;20402;-69
2023/01/10 04:41:17;;;;;;;6.25;1.55;;;;;;;12.97;47.20;101422.44;5034196;28;20060;-69
2023/01/10 04:43:42;;;;;;;9.70;1.70;;;;;;;12.96;47.47;101421.59;5016097;28;20040;-69
2023/01/10 04:46:08;;;;;;;4.93;1.40;;;;;;;12.96;47.12;101431.47;5034127;28;20041;-69
2023/01/10 04:48:33;;;;;;;8.07;1.20;;;;;;;12.94;46.71;101420.88;5044736;28;20053;-69
2023/01/10 04:50:59;;;;;;;8.13;1.35;;;;;;;12.95;47.07;101424.41;5037367;28;20036;-69
2023/01/10 04:53:24;;;;;;;9.93;1.65;;;;;;;12.96;47.18;101421.59;5046093;28;20033;-70
2023/01/10 04:55:49;;;;;;;9.68;1.58;;;;;;;12.96;47.57;101415.34;5053705;28;20037;-70
2023/01/10 04:58:15;;;;;;;6.05;1.65;;;;;;;12.94;46.92;101426.25;5051735;28;20029;-69
2023/01/10 05:00:40;;;;;;;9.27;1.27;;;;;;;12.92;47.06;101436.28;5034579;28;20018;-71
2023/01/10 05:03:06;;;;;;;6.45;1.63;;;;;;;12.91;46.83;101449.84;5051670;28;20124;-68
2023/01/10 05:05:31;;;;;;;14.82;2.03;;;;;;;12.91;47.63;101439.94;5035861;28;20043;-69
2023/01/10 05:07:57;;;;;;;13.65;1.88;;;;;;;12.89;46.83;101451.81;5035816;28;20075;-68
2023/01/10 05:10:22;;;;;;;6.50;1.20;;;;;;;12.84;47.72;101444.97;5053698;28;20029;-70
2023/01/10 05:12:48;;;;;;;8.70;1.48;;;;;;;12.83;47.23;101437.91;5036326;28;20025;-69
2023/01/10 05:15:13;;;;;;;9.20;1.40;;;;;;;12.84;47.84;101422.63;5017256;28;20113;-69
2023/01/10 05:17:39;;;;;;;11.50;2.10;;;;;;;12.83;47.25;101432.53;5033530;28;20108;-68
2023/01/10 05:20:05;;;;;;;9.80;1.63;;;;;;;12.84;47.61;101438.78;5033604;28;20068;-70
2023/01/10 05:22:30;;;;;;;12.57;1.63;;;;;;;12.84;46.70;101444.97;5038155;28;20112;-69
2023/01/10 05:24:56;;;;;;;13.55;2.08;;;;;;;12.86;47.44;101455.63;5053572;28;20031;-69
2023/01/10 05:27:21;;;;;;;10.10;1.60;;;;;;;12.85;46.80;101451.22;5035414;28;20044;-70
2023/01/10 05:29:46;;;;;;;15.02;2.13;;;;;;;12.84;47.73;101465.66;5035575;28;20086;-69
2023/01/10 05:32:12;;;;;;;9.90;1.67;;;;;;;12.82;46.66;101467.59;5053284;28;20158;-69
2023/01/10 05:34:37;;;;;;;3.13;0.95;;;;;;;12.83;46.72;101474.69;5053102;28;20079;-69
2023/01/10 05:37:03;;;;;;;8.80;1.80;;;;;;;12.85;46.82;101478.09;5018868;28;20033;-69
2023/01/10 05:39:28;;;;;;;5.88;1.63;;;;;;;12.84;47.39;101484.47;5055670;28;20025;-68
2023/01/10 05:41:53;;;;;;;10.32;1.67;;;;;;;12.84;47.44;101473.72;5035778;28;20413;-68
2023/01/10 05:44:19;;;;;;;11.25;1.65;;;;;;;12.84;47.65;101479.09;5053171;28;20060;-70
2023/01/10 05:46:44;;;;;;;9.95;1.83;;;;;;;12.85;48.03;101488.84;5053019;28;20033;-69
2023/01/10 05:49:10;;;;;;;10.30;2.15;;;;;;;12.87;47.05;101497.63;5051012;28;20052;-69
2023/01/10 05:51:35;;;;;;;21.73;2.85;;;;;;;12.88;47.62;101499.34;4998743;28;20474;-70
2023/01/10 05:54:00;;;;;;;13.90;3.20;;;;;;;12.89;47.42;101500.22;5033183;28;20042;-70
2023/01/10 05:56:26;;;;;;;11.80;2.08;;;;;;;12.90;47.94;101502.75;5027533;28;20028;-69
2023/01/10 05:58:51;;;;;;;10.60;2.05;;;;;;;12.90;47.01;101508.13;5034841;28;20386;-69
2023/01/10 06:01:17;;;;;;;5.82;1.80;;;;;;;12.90;47.50;101513.53;5053076;28;20500;-69
2023/01/10 06:03:42;;;;;;;8.50;1.45;;;;;;;12.92;47.36;101514.28;5053408;28;20068;-69
2023/01/10 06:06:08;;;;;;;19.58;2.60;;;;;;;12.95;46.89;101514.00;5034840;28;20068;-69
2023/01/10 06:08:35;;;;;;;16.17;1.60;;;;;;;12.98;47.42;101529.88;5015470;28;20055;-69
2023/01/10 06:11:04;;;;;;;10.82;1.88;;;;;;;12.97;47.08;101522.81;5041983;28;20039;-70
2023/01/10 06:13:29;;;;;;;8.75;2.40;;;;;;;12.96;46.62;101526.47;5048806;28;20083;-69
2023/01/10 06:15:54;;;;;;;9.65;1.70;;;;;;;12.96;47.51;101526.47;5015396;28;20440;-68
2023/01/10 06:18:20;;;;;;;8.93;2.30;;;;;;;12.96;46.76;101525.59;4995798;28;20112;-70
2023/01/10 06:20:45;;;;;;;15.88;2.80;;;;;;;12.93;47.99;101524.03;4995198;28;20383;-68
2023/01/10 06:23:11;;;;;;;16.02;2.40;;;;;;;12.93;47.96;101537.47;5012855;28;20517;-70
2023/01/10 06:25:39;;;;;;;8.60;2.60;;;;;;;12.93;47.10;101537.47;4995553;28;20116;-69
2023/01/10 06:28:07;;;;;;;11.50;1.92;;;;;;;12.92;47.35;101535.78;5012791;28;20435;-69
2023/01/10 06:30:34;;;;;;;11.57;1.77;;;;;;;12.92;47.88;101532.22;5013703;28;20041;-69
2023/01/10 06:33:01;;;;;;;9.07;2.35;;;;;;;12.92;47.75;101537.59;4995727;28;20039;-68
2023/01/10 06:35:27;;;;;;;11.50;1.98;;;;;;;12.91;47.27;101542.13;4995300;28;20042;-70
2023/01/10 06:37:52;;;;;;;8.63;1.75;;;;;;;12.90;47.49;101548.47;5012803;28;20149;-69
2023/01/10 06:40:17;;;;;;;13.75;2.65;;;;;;;12.91;46.48;101547.50;5012754;28;20399;-69
2023/01/10 06:42:43;;;;;;;10.80;1.67;;;;;;;12.91;47.58;101552.03;4995790;28;20109;-70
2023/01/10 06:45:09;;;;;;;14.82;2.05;;;;;;;12.88;46.28;101552.28;5012364;28;20536;-70
2023/01/10 06:47:34;;;;;;;19.35;2.05;;;;;;;12.87;46.57;101559.47;5012398;28;20030;-69
2023/01/10 06:50:00;;;;;;;6.95;1.75;;;;;;;12.87;47.72;101562.16;5012787;28;20084;-69
2023/01/10 06:52:25;;;;;;;12.15;2.17;;;;;;;12.89;47.12;101559.38;5012665;28;20029;-69
2023/01/10 06:54:51;;;;;;;8.10;1.80;;;;;;;12.87;47.40;101551.41;5013003;28;20041;-70
2023/01/10 06:57:17;;;;;;;15.98;3.47;;;;;;;12.88;47.57;101565.72;4999200;28;20042;-70
2023/01/10 06:59:43;;;;;;;19.65;2.92;;;;;;;12.87;46.93;101562.16;5012841;28;20093;-70
2023/01/10 07:02:10;;;;;;;7.13;1.65;;;;;;;12.86;46.98;101571.22;4995921;28;20121;-70
2023/01/10 07:04:35;;;;;;;8.38;2.45;;;;;;;12.82;46.67;101570.63;5016065;28;20567;-68
2023/01/10 07:07:00;;;;;;;11.65;1.90;;;;;;;12.81;46.91;101568.06;5016460;28;20034;-70
2023/01/10 07:09:27;;;;;;;13.48;2.13;;;;;;;12.78;46.65;101574.56;4998914;28;20026;-71
2023/01/10 07:11:52;;;;;;;6.13;1.95;;;;;;;12.75;46.52;101568.56;5016334;28;20041;-71
2023/01/10 07:14:18;;;;;;;10.18;2.40;;;;;;;12.74;47.43;101573.09;4998860;28;20034;-70
2023/01/10 07:16:43;;;;;;;16.98;2.72;;;;;;;12.75;46.60;101590.06;5016014;28;20494;-69
2023/01/10 07:19:08;;;;;;;17.23;2.90;;;;;;;12.74;47.53;101588.34;5016281;28;20026;-70
2023/01/10 07:21:34;;;;;;;14.60;3.20;;;;;;;12.73;47.27;101581.28;4999429;28;20058;-69
2023/01/10 07:23:59;;;;;;;9.50;2.28;;;;;;;12.71;46.70;101599.34;5016047;28;20379;-70
2023/01/10 07:26:25;;;;;;;12.40;2.45;;;;;;;12.70;47.12;101611.09;5015849;28;20042;-71
2023/01/10 07:28:50;;;;;;;9.60;2.33;;;;;;;12.69;47.20;101609.38;5015803;28;20037;-69
2023/01/10 07:31:21;;;;;;;11.57;2.03;;;;;;;12.70;47.07;101621.84;4998462;28;20104;-70
2023/01/10 07:33:46;;;;;;;9.30;1.20;;;;;;;12.70;47.32;101619.16;5016295;28;20393;-70
2023/01/10 07:36:12;;;;;;;12.27;2.70;;;;;;;12.72;46.89;101617.19;4998122;28;20117;-71
2023/01/10 07:38:37;;;;;;;12.48;2.15;;;;;;;12.70;46.78;101622.69;4998245;28;20038;-70
2023/01/10 07:41:03;;;;;;;10.90;1.73;;;;;;;12.69;47.04;101623.69;4998215;28;20127;-70
2023/01/10 07:43:29;;;;;;;4.00;1.63;;;;;;;12.66;46.91;101626.63;5015640;28;20567;-70
2023/01/10 07:46:02;;;;;;;16.02;1.98;;;;;;;12.67;47.80;101630.16;5016013;28;20030;-69
2023/01/10 07:48:28;;;;;;;7.30;1.77;;;;;;;12.67;46.30;101624.78;5035274;28;20049;-70
2023/01/10 07:50:57;;;;;;;8.68;2.17;;;;;;;12.67;47.61;101632.84;5019214;28;20560;-68
2023/01/10 07:53:24;;;;;;;12.35;1.63;;;;;;;12.67;46.71;101643.59;4997780;28;20038;-69
2023/01/10 07:55:49;;;;;;;7.07;1.88;;;;;;;12.67;47.12;101646.28;5015263;28;20041;-70
2023/01/10 07:58:14;;;;;;;7.32;1.52;;;;;;;12.66;46.26;101645.44;5015470;28;20034;-69
2023/01/10 08:00:40;;;;;;;8.90;1.85;;;;;;;12.67;46.40;101651.66;4998021;28;20030;-70
2023/01/10 08:03:05;;;;;;;13.38;2.45;;;;;;;12.69;46.25;101652.41;5015199;28;20038;-69
2023/01/10 08:05:31;;;;;;;7.82;1.33;;;;;;;12.72;46.38;101654.84;4997685;28;20499;-70
2023/01/10 08:07:58;;;;;;;16.45;1.80;;;;;;;12.73;46.21;101661.94;5015139;28;20387;-70
2023/01/10 08:10:25;;;;;;;12.70;2.13;;;;;;;12.75;46.62;101654.59;4997871;28;20034;-68
2023/01/10 08:12:50;;;;;;;9.15;2.17;;;;;;;12.78;46.98;101662.41;4998253;28;20030;-69
2023/01/10 08:15:15;;;;;;;12.02;2.38;;;;;;;12.78;47.03;101652.53;5014456;28;20108;-70
2023/01/10 08:17:41;;;;;;;16.27;1.92;;;;;;;12.80;46.82;101644.31;4997472;28;20045;-69
2023/01/10 08:20:08;;;;;;;7.30;1.67;;;;;;;12.82;47.18;101647.72;5014932;28;20064;-69
2023/01/10 08:22:33;;;;;;;10.10;1.88;;;;;;;12.85;46.20;101639.41;5015109;28;20026;-70
2023/01/10 08:24:59;;;;;;;3.50;1.65;;;;;;;12.87;46.85;101634.75;5015172;28;20033;-70
2023/01/10 08:27:24;;;;;;;6.88;1.58;;;;;;;12.90;46.66;101642.59;5015337;28;20406;-69
2023/01/10 08:29:50;;;;;;;17.48;2.10;;;;;;;12.91;46.20;101644.31;5014824;28;20034;-69
2023/01/10 08:32:16;;;;;;;11.75;1.83;;;;;;;12.93;46.55;101642.34;4997036;28;20393;-70
2023/01/10 08:34:41;;;;;;;5.50;1.55;;;;;;;12.98;47.28;101629.38;5014618;28;20025;-69
2023/01/10 08:37:06;;;;;;;16.38;2.00;;;;;;;12.98;47.20;101634.75;5014489;28;20466;-69
2023/01/10 08:39:33;;;;;;;11.80;2.22;;;;;;;13.01;46.98;101639.06;5015224;28;20026;-70
2023/01/10 08:41:59;;;;;;;25.80;2.50;;;;;;;13.04;47.09;101646.84;5014695;28;20474;-68
2023/01/10 08:44:25;;;;;;;8.18;1.70;;;;;;;13.05;46.58;101649.41;5014294;28;20034;-68
2023/01/10 08:46:51;;;;;;;14.43;1.77;;;;;;;13.09;46.06;101652.75;5014560;28;20125;-68
2023/01/10 08:49:16;;;;;;;10.02;2.00;;;;;;;13.14;45.97;101656.78;5014462;28;20464;-69
2023/01/10 08:51:43;;;;;;;14.23;2.28;;;;;;;13.20;46.94;101655.44;5014961;28;20030;-69
2023/01/10 08:54:09;;;;;;;8.55;1.98;;;;;;;13.25;45.84;101656.75;5014241;28;20038;-68
2023/01/10 08:56:36;;;;;;;13.82;1.92;;;;;;;13.34;46.26;101647.91;4996701;28;20044;-69
2023/01/10 08:59:01;;;;;;;13.90;1.60;;;;;;;13.44;47.05;101656.09;5027129;28;20037;-68
2023/01/10 09:01:27;;;;;;;7.85;1.63;;;;;;;13.53;46.31;101651.78;5033891;28;20040;-69
2023/01/10 09:03:52;;;;;;;8.20;1.60;;;;;;;13.60;46.96;101652.94;5034572;28;20539;-68
2023/01/10 09:06:18;;;;;;;6.03;2.30;;;;;;;13.66;45.48;101660.53;5053567;28;20047;-68
2023/01/10 09:08:43;;;;;;;10.77;2.20;;;;;;;13.72;46.13;101647.41;5053630;28;20051;-68
2023/01/10 09:11:09;;;;;;;10.80;1.77;;;;;;;13.80;45.79;101652.13;5053785;28;20033;-70
2023/01/10 09:13:34;;;;;;;13.57;1.55;;;;;;;13.88;46.58;101649.66;5030605;28;20025;-70
2023/01/10 09:15:59;;;;;;;10.55;1.80;;;;;;;13.95;46.28;101642.78;5034265;28;20109;-67
2023/01/10 09:18:25;;;;;;;11.60;1.80;;;;;;;14.02;46.73;101650.19;5053813;28;20526;-66
2023/01/10 09:20:51;;;;;;;12.95;1.90;;;;;;;14.09;45.62;101645.13;5053518;28;20385;-68
2023/01/10 09:23:19;;;;;;;12.77;2.10;;;;;;;14.17;46.85;101656.09;5053545;28;20036;-66
2023/01/10 09:25:45;;;;;;;14.55;2.00;;;;;;;14.24;45.86;101654.56;5052620;28;20029;-71
2023/01/10 09:28:11;;;;;;;18.02;1.92;;;;;;;14.33;45.18;101663.75;5053454;28;20028;-69
2023/01/10 09:30:36;;;;;;;8.15;2.17;;;;;;;14.44;45.98;101667.22;5053964;28;20024;-71
2023/01/10 09:33:03;;;;;;;9.52;2.10;;;;;;;14.54;44.97;101662.72;5053301;28;20049;-70
2023/01/10 09:35:29;;;;;;;8.02;1.88;;;;;;;14.61;45.64;101663.03;5022790;28;20041;-70
2023/01/10 09:38:02;;;;;;;7.75;1.52;;;;;;;14.70;45.09;101669.47;5023984;28;20037;-70
2023/01/10 09:40:36;;;;;;;6.22;1.70;;;;;;;14.76;45.96;101666.25;5053125;28;20116;-71
2023/01/10 09:43:14;;;;;;;3.38;1.75;;;;;;;14.79;44.66;101668.66;5052924;28;20032;-71
2023/01/10 09:46:01;;;;;;;6.30;1.90;;;;;;;14.87;45.73;101658.06;5019107;28;20489;-70
2023/01/10 09:48:39;;;;;;;10.65;1.83;;;;;;;14.90;45.85;101657.78;5053143;28;20067;-71
2023/01/10 09:51:19;;;;;;;8.35;2.83;;;;;;;14.88;45.84;101662.47;5053039;28;20033;-70
2023/01/10 09:53:46;;;;;;;6.55;2.15;;;;;;;14.82;46.47;101639.59;5053184;28;20033;-71
2023/01/10 09:56:13;;;;;;;9.48;2.25;;;;;;;14.83;44.97;101640.41;5053165;28;20163;-69
2023/01/10 09:58:39;;;;;;;11.60;1.70;;;;;;;14.86;45.45;101649.09;5053002;28;20029;-70
2023/01/10 10:01:07;;;;;;;8.10;1.75;;;;;;;14.91;45.93;101643.28;5034945;28;20040;-70
2023/01/10 10:04:06;;;;;;;12.38;2.00;;;;;;;14.96;46.29;101649.16;5053449;28;20017;-70
2023/01/10 10:06:33;;;;;;;7.30;1.58;;;;;;;15.04;44.81;101643.91;5018547;28;20048;-70
2023/01/10 10:08:58;;;;;;;10.25;2.13;;;;;;;15.11;44.38;101650.44;5035313;28;20037;-70
2023/01/10 10:11:24;;;;;;;10.48;2.63;;;;;;;15.17;44.96;101647.19;5052685;28;20060;-71
2023/01/10 10:14:20;;;;;;;13.48;2.05;;;;;;;15.22;44.32;101634.13;5047751;28;20509;-69
2023/01/10 10:17:13;;;;;;;7.10;1.35;;;;;;;15.27;45.92;101626.47;5025298;28;20082;-70
2023/01/10 10:20:14;;;;;;;10.70;2.03;;;;;;;15.43;45.10;101632.19;5022208;28;20448;-69
2023/01/10 10:23:08;;;;;;;5.43;1.95;;;;;;;15.57;45.29;101621.00;5031795;28;20021;-71
2023/01/10 10:25:42;;;;;;;13.90;2.20;;;;;;;15.70;44.20;101616.16;5022025;28;20087;-70
2023/01/10 10:28:43;;;;;;;10.15;2.25;;;;;;;15.76;45.35;101619.28;5041408;28;20022;-71
2023/01/10 10:31:13;;;;;;;6.32;1.55;;;;;;;15.71;45.51;101612.47;5023462;28;20088;-69
2023/01/10 10:33:41;;;;;;;7.60;1.58;;;;;;;15.65;45.65;101609.50;5034963;28;20484;-69
2023/01/10 10:36:14;;;;;;;14.25;2.05;;;;;;;15.57;45.19;101599.41;5031787;28;20037;-69
2023/01/10 10:38:42;;;;;;;14.55;2.22;;;;;;;15.55;44.97;101605.94;5017791;28;20049;-69
2023/01/10 10:41:16;;;;;;;10.52;1.60;;;;;;;15.55;45.04;101601.38;5018167;28;20040;-70
2023/01/10 10:43:44;;;;;;;10.35;2.28;;;;;;;15.59;44.80;101592.00;5035535;28;20053;-70
2023/01/10 10:46:13;;;;;;;11.88;1.92;;;;;;;15.59;44.80;101597.41;5017597;28;20478;-69
2023/01/10 10:48:44;;;;;;;8.38;1.98;;;;;;;15.53;45.74;101589.00;5035864;28;20061;-70
2023/01/10 10:51:48;;;;;;;5.93;1.23;;;;;;;15.49;45.41;101591.16;5035374;28;20048;-69
2023/01/10 10:54:15;;;;;;;10.25;2.03;;;;;;;15.46;45.52;101580.66;5034800;28;20045;-70
2023/01/10 10:56:42;;;;;;;11.57;2.00;;;;;;;15.48;44.35;101577.78;5017579;28;20076;-70
2023/01/10 10:59:07;;;;;;;10.45;1.80;;;;;;;15.52;44.60;101580.06;5035232;28;20041;-70
2023/01/10 11:01:33;;;;;;;13.57;2.13;;;;;;;15.55;45.34;101562.75;5019693;28;20038;-70
2023/01/10 11:04:01;;;;;;;10.30;1.75;;;;;;;15.54;44.58;101561.88;5025778;28;20052;-69
2023/01/10 11:06:28;;;;;;;17.23;2.10;;;;;;;15.54;45.35;101561.03;5027987;28;20037;-70
2023/01/10 11:08:56;;;;;;;8.65;1.80;;;;;;;15.57;44.73;101556.19;5027526;28;20480;-69
2023/01/10 11:11:24;;;;;;;9.13;1.88;;;;;;;15.64;44.78;101554.59;5043563;28;20498;-70
2023/01/10 11:13:57;;;;;;;11.20;2.33;;;;;;;15.70;44.62;101554.03;5026789;28;20489;-70
2023/01/10 11:16:24;;;;;;;7.80;2.08;;;;;;;15.79;44.38;101555.03;5043654;28;20083;-68
2023/01/10 11:19:25;;;;;;;7.40;1.45;;;;;;;15.85;44.87;101548.19;5045081;28;20057;-70
2023/01/10 11:22:01;;;;;;;14.40;1.73;;;;;;;15.89;44.17;101544.19;5001772;28;20524;-71
2023/01/10 11:24:32;;;;;;;11.25;2.38;;;;;;;15.89;45.27;101538.78;5043222;28;20041;-70
2023/01/10 11:27:02;;;;;;;9.85;1.88;;;;;;;15.85;44.88;101551.75;5009113;28;20414;-69
2023/01/10 11:29:46;;;;;;;15.98;2.17;;;;;;;15.82;45.28;101548.47;5027089;28;20056;-70
2023/01/10 11:32:14;;;;;;;10.90;1.65;;;;;;;15.79;45.37;101548.75;5044578;28;20025;-69
2023/01/10 11:34:47;;;;;;;10.93;2.40;;;;;;;15.78;45.11;101553.31;5025386;28;20030;-69
2023/01/10 11:37:17;;;;;;;11.40;1.75;;;;;;;15.72;44.26;101549.34;5026092;28;20082;-69